createdAt,value
2022-11-20T00:01:52.716Z,2.13
2022-11-20T00:06:54.877Z,2.00
2022-11-20T00:11:56.903Z,1.96
2022-11-20T00:16:58.996Z,2.07
2022-11-20T00:22:01.081Z,1.96
2022-11-20T00:27:03.158Z,1.99
2022-11-20T00:32:05.375Z,1.84
2022-11-20T00:37:07.510Z,1.79
2022-11-20T00:42:09.567Z,1.90
2022-11-20T00:47:11.740Z,1.99
2022-11-20T00:52:13.753Z,2.15
2022-11-20T00:57:15.843Z,2.02
2022-11-20T01:02:17.861Z,2.14
2022-11-20T01:07:19.944Z,1.90
2022-11-20T01:12:22.165Z,1.85
2022-11-20T01:17:24.270Z,1.96
2022-11-20T01:22:26.342Z,1.74
2022-11-20T01:27:28.388Z,1.66
2022-11-20T01:32:30.415Z,1.64
2022-11-20T01:43:07.283Z,1.69
2022-11-20T01:48:09.559Z,1.77
2022-11-20T01:53:18.998Z,1.83
2022-11-20T01:58:25.605Z,1.80
2022-11-20T02:03:28.677Z,1.80
2022-11-20T02:08:32.168Z,1.89
2022-11-20T02:13:44.592Z,1.86
2022-11-20T02:18:47.739Z,1.92
2022-11-20T02:24:12.850Z,1.90
2022-11-20T02:29:20.028Z,1.96
2022-11-20T02:34:22.360Z,1.98
2022-11-20T02:39:26.472Z,2.00
2022-11-20T02:44:28.562Z,2.06
2022-11-20T02:49:30.758Z,2.03
2022-11-20T02:54:32.881Z,1.92
2022-11-20T02:59:34.943Z,2.02
2022-11-20T03:04:37.016Z,2.01
2022-11-20T03:09:39.050Z,1.99
2022-11-20T03:14:41.369Z,2.06
2022-11-20T03:19:43.449Z,2.08
2022-11-20T03:24:45.547Z,2.12
2022-11-20T03:29:47.586Z,2.11
2022-11-20T03:34:49.646Z,2.06
2022-11-20T03:39:51.694Z,2.07
2022-11-20T03:44:53.940Z,2.16
2022-11-20T03:49:55.961Z,2.04
2022-11-20T03:54:57.965Z,2.09
2022-11-20T04:00:00.247Z,2.07
2022-11-20T04:05:02.303Z,2.11
2022-11-20T04:10:04.866Z,2.14
2022-11-20T04:15:07.210Z,2.10
2022-11-20T04:20:09.480Z,2.01
2022-11-20T04:25:11.547Z,1.95
2022-11-20T04:30:13.859Z,1.88
2022-11-20T04:35:16.034Z,2.02
2022-11-20T04:40:18.061Z,2.12
2022-11-20T04:45:20.183Z,2.05
2022-11-20T04:50:22.255Z,2.22
2022-11-20T04:55:24.255Z,2.26
2022-11-20T05:00:26.282Z,2.28
2022-11-20T05:05:28.440Z,2.23
2022-11-20T05:10:30.489Z,2.25
2022-11-20T05:15:33.319Z,2.29
2022-11-20T05:20:37.245Z,2.27
2022-11-20T05:25:39.292Z,2.35
2022-11-20T05:30:41.326Z,2.32
2022-11-20T05:35:43.580Z,2.38
2022-11-20T05:40:45.687Z,2.22
2022-11-20T05:45:55.271Z,2.27
2022-11-20T05:51:02.153Z,2.23
2022-11-20T05:56:07.035Z,2.34
2022-11-20T06:01:12.975Z,2.30
2022-11-20T06:06:16.397Z,2.30
2022-11-20T06:11:18.753Z,2.21
2022-11-20T06:16:21.591Z,2.26
2022-11-20T06:21:23.998Z,2.29
2022-11-20T06:26:29.498Z,2.32
2022-11-20T06:31:33.863Z,2.40
2022-11-20T06:36:36.047Z,2.47
2022-11-20T06:41:38.119Z,2.40
2022-11-20T06:46:40.246Z,2.48
2022-11-20T06:51:42.308Z,2.55
2022-11-20T06:56:48.950Z,2.64
2022-11-20T07:01:50.976Z,2.68
2022-11-20T07:06:53.038Z,2.82
2022-11-20T07:11:55.070Z,3.01
2022-11-20T07:16:57.246Z,3.18
2022-11-20T07:21:59.356Z,3.32
2022-11-20T07:27:01.965Z,3.26
2022-11-20T07:32:05.159Z,3.31
2022-11-20T07:37:10.334Z,3.49
2022-11-20T07:42:13.243Z,3.43
2022-11-20T07:47:15.270Z,3.43
2022-11-20T07:52:17.343Z,3.53
2022-11-20T07:57:20.470Z,3.64
2022-11-20T08:02:24.259Z,3.75
2022-11-20T08:07:26.377Z,3.88
2022-11-20T08:12:47.011Z,4.04
2022-11-20T08:18:15.291Z,4.20
2022-11-20T08:23:11.327Z,4.41
2022-11-20T08:28:20.809Z,4.36
2022-11-20T08:33:23.637Z,4.55
2022-11-20T08:38:25.701Z,4.49
2022-11-20T08:43:27.800Z,4.59
2022-11-20T08:48:29.882Z,4.85
2022-11-20T08:53:31.926Z,4.69
2022-11-20T08:58:54.878Z,4.63
2022-11-20T09:03:57.922Z,4.97
2022-11-20T09:09:06.112Z,4.98
2022-11-20T09:14:08.818Z,4.81
2022-11-20T09:19:34.605Z,4.59
2022-11-20T09:24:33.070Z,4.70
2022-11-20T09:29:35.166Z,4.80
2022-11-20T09:34:37.242Z,4.79
2022-11-20T09:39:40.087Z,4.86
2022-11-20T09:45:00.365Z,5.09
2022-11-20T09:50:24.869Z,5.40
2022-11-20T09:55:29.070Z,5.51
2022-11-20T10:00:31.372Z,5.70
2022-11-20T10:05:53.524Z,5.95
2022-11-20T10:11:13.180Z,6.04
2022-11-20T10:16:39.551Z,6.33
2022-11-20T10:22:06.333Z,6.86
2022-11-20T10:27:08.313Z,6.99
2022-11-20T10:32:19.938Z,7.65
2022-11-20T10:37:28.665Z,10.01
2022-11-20T10:42:37.525Z,11.57
2022-11-20T10:47:39.637Z,12.05
2022-11-20T10:52:51.004Z,14.02
2022-11-20T10:57:59.061Z,15.05
2022-11-20T11:03:04.016Z,14.25
2022-11-20T11:08:13.559Z,14.00
2022-11-20T11:13:25.845Z,13.58
2022-11-20T11:18:35.613Z,11.07
2022-11-20T11:23:43.781Z,9.02
2022-11-20T11:29:00.527Z,8.98
2022-11-20T11:34:06.809Z,8.54
2022-11-20T11:39:22.491Z,9.58
2022-11-20T11:44:54.076Z,10.80
2022-11-20T11:50:12.442Z,10.38
2022-11-20T11:55:37.827Z,8.72
2022-11-20T12:00:46.999Z,7.63
2022-11-20T12:05:58.743Z,7.28
2022-11-20T12:11:08.339Z,7.13
2022-11-20T12:16:15.393Z,7.39
2022-11-20T12:21:24.350Z,7.37
2022-11-20T12:26:52.423Z,7.13
2022-11-20T12:32:10.181Z,7.37
2022-11-20T12:37:27.407Z,7.24
2022-11-20T12:43:03.585Z,7.17
2022-11-20T12:48:31.725Z,7.06
2022-11-20T12:54:07.827Z,6.61
2022-11-20T12:59:45.304Z,6.36
2022-11-20T13:05:09.212Z,6.39
2022-11-20T13:10:22.575Z,6.27
2022-11-20T13:15:43.803Z,6.40
2022-11-20T13:20:47.768Z,6.56
2022-11-20T13:25:51.058Z,6.98
2022-11-20T13:30:55.090Z,7.44
2022-11-20T13:36:07.119Z,7.26
2022-11-20T13:41:28.191Z,7.10
2022-11-20T13:46:44.209Z,6.68
2022-11-20T13:51:56.013Z,6.52
2022-11-20T13:57:28.161Z,6.66
2022-11-20T14:02:31.264Z,6.53
2022-11-20T14:07:40.805Z,6.39
2022-11-20T14:12:42.899Z,6.20
2022-11-20T14:17:44.914Z,5.97
2022-11-20T14:22:54.627Z,5.83
2022-11-20T14:27:59.673Z,5.73
2022-11-20T14:33:04.856Z,5.61
2022-11-20T14:38:13.660Z,6.19
2022-11-20T14:43:28.809Z,5.66
2022-11-20T14:48:36.535Z,5.26
2022-11-20T14:53:38.800Z,4.98
2022-11-20T14:58:40.902Z,4.84
2022-11-20T15:03:43.223Z,4.66
2022-11-20T15:08:52.890Z,4.39
2022-11-20T15:13:55.137Z,4.25
2022-11-20T15:18:57.698Z,3.99
2022-11-20T15:24:01.363Z,3.84
2022-11-20T15:29:03.572Z,3.87
2022-11-20T15:34:09.179Z,3.77
2022-11-20T15:39:12.542Z,3.70
2022-11-20T15:44:14.903Z,3.64
2022-11-20T15:49:19.935Z,3.62
2022-11-20T15:54:23.804Z,3.52
2022-11-20T15:59:26.106Z,3.55
2022-11-20T16:04:28.252Z,3.52
2022-11-20T16:09:30.458Z,3.56
2022-11-20T16:14:51.343Z,3.52
2022-11-20T16:19:53.405Z,3.63
2022-11-20T16:24:55.562Z,3.62
2022-11-20T16:29:57.700Z,3.66
2022-11-20T16:35:00.137Z,3.63
2022-11-20T16:40:02.220Z,3.67
2022-11-20T16:45:05.738Z,3.67
2022-11-20T16:50:08.317Z,3.74
2022-11-20T16:55:11.285Z,3.53
2022-11-20T17:00:14.626Z,3.21
2022-11-20T17:05:16.701Z,3.02
2022-11-20T17:10:18.815Z,2.96
2022-11-20T17:15:20.979Z,2.64
2022-11-20T17:20:23.010Z,2.48
2022-11-20T17:25:25.128Z,2.33
2022-11-20T17:30:27.305Z,2.17
2022-11-20T17:35:29.565Z,2.19
2022-11-20T17:40:31.704Z,1.94
2022-11-20T17:45:36.373Z,1.92
2022-11-20T17:50:38.480Z,1.76
2022-11-20T17:55:59.096Z,1.85
2022-11-20T18:01:06.378Z,1.88
2022-11-20T18:06:19.887Z,1.72
2022-11-20T18:11:27.963Z,1.72
2022-11-20T18:16:32.145Z,1.75
2022-11-20T18:21:34.265Z,1.76
2022-11-20T18:26:41.416Z,1.65
2022-11-20T18:31:46.251Z,1.47
2022-11-20T18:36:48.677Z,1.34
2022-11-20T18:42:10.065Z,1.22
2022-11-20T18:47:15.856Z,1.38
2022-11-20T18:52:23.334Z,1.18
2022-11-20T18:57:27.130Z,1.65
2022-11-20T19:02:29.639Z,1.54
2022-11-20T19:07:31.742Z,1.46
2022-11-20T19:12:33.842Z,1.52
2022-11-20T19:17:35.933Z,1.65
2022-11-20T19:22:37.985Z,1.84
2022-11-20T19:27:40.056Z,1.59
2022-11-20T19:32:42.222Z,1.48
2022-11-20T19:37:44.254Z,1.41
2022-11-20T19:42:46.327Z,1.33
2022-11-20T19:53:11.586Z,0.97
2022-11-20T19:58:13.654Z,0.86
2022-11-20T20:03:15.726Z,0.80
2022-11-20T20:08:20.190Z,0.78
2022-11-20T20:13:22.336Z,0.81
2022-11-20T20:18:24.376Z,0.80
2022-11-20T20:23:26.398Z,1.21
2022-11-20T20:28:29.384Z,1.07
2022-11-20T20:33:31.550Z,1.06
2022-11-20T20:38:34.089Z,1.21
2022-11-20T20:43:57.764Z,1.23
2022-11-20T20:49:00.117Z,1.16
2022-11-20T20:54:02.462Z,0.92
2022-11-20T20:59:04.562Z,0.85
2022-11-20T21:04:06.625Z,0.84
2022-11-20T21:09:08.684Z,0.71
2022-11-20T21:14:10.714Z,0.89
2022-11-20T21:19:12.900Z,0.96
2022-11-20T21:24:14.948Z,0.87
2022-11-20T21:29:16.991Z,0.72
2022-11-20T21:34:19.262Z,0.70
2022-11-20T21:39:22.060Z,0.63
2022-11-20T21:44:30.681Z,0.49
2022-11-20T21:49:33.636Z,0.53
2022-11-20T21:54:36.218Z,0.58
2022-11-20T21:59:38.348Z,0.91
2022-11-20T22:04:40.428Z,1.01
2022-11-20T22:09:42.486Z,0.99
2022-11-20T22:14:45.915Z,0.85
2022-11-20T22:19:48.025Z,0.79
2022-11-20T22:24:50.641Z,0.92
2022-11-20T22:29:52.647Z,0.82
2022-11-20T22:34:54.674Z,0.81
2022-11-20T22:39:56.687Z,0.70
2022-11-20T22:44:58.724Z,0.52
2022-11-20T22:50:00.751Z,0.59
2022-11-20T22:55:02.818Z,0.45
2022-11-20T23:00:05.926Z,0.49
2022-11-20T23:05:08.071Z,0.44
2022-11-20T23:10:10.419Z,0.36
2022-11-20T23:15:12.510Z,0.26
2022-11-20T23:20:14.537Z,0.16
2022-11-20T23:25:16.651Z,0.25
2022-11-20T23:30:18.824Z,0.19
2022-11-20T23:35:20.929Z,0.43
2022-11-20T23:40:23.180Z,0.40
2022-11-20T23:45:25.234Z,0.33
2022-11-20T23:50:27.286Z,-0.11
2022-11-20T23:55:29.367Z,-0.38
